createdAt,value
2023-01-11T00:01:11.046Z,13.83
2023-01-11T00:03:39.614Z,10.67
2023-01-11T00:06:08.943Z,11.57
2023-01-11T00:08:36.621Z,11.37
2023-01-11T00:11:04.518Z,13.87
2023-01-11T00:13:32.768Z,11.63
2023-01-11T00:16:07.150Z,10.27
2023-01-11T00:18:34.901Z,12.20
2023-01-11T00:21:05.541Z,9.13
2023-01-11T00:23:35.926Z,12.03
2023-01-11T00:26:04.628Z,9.07
2023-01-11T00:28:32.568Z,8.90
2023-01-11T00:31:00.891Z,8.63
2023-01-11T00:33:28.621Z,13.73
2023-01-11T00:35:56.319Z,12.33
2023-01-11T00:38:42.568Z,9.10
2023-01-11T00:41:31.238Z,9.43
2023-01-11T00:44:16.452Z,10.73
2023-01-11T00:47:01.876Z,8.83
2023-01-11T00:49:29.623Z,11.40
2023-01-11T00:51:57.556Z,10.03
2023-01-11T00:54:25.250Z,7.90
2023-01-11T00:56:54.394Z,10.67
2023-01-11T00:59:22.043Z,11.97
2023-01-11T01:01:49.770Z,10.13
2023-01-11T01:04:17.480Z,8.30
2023-01-11T01:06:45.374Z,8.37
2023-01-11T01:09:13.132Z,9.50
2023-01-11T01:11:41.144Z,9.10
2023-01-11T01:14:28.332Z,10.33
2023-01-11T01:16:57.788Z,8.80
2023-01-11T01:19:27.682Z,8.77
2023-01-11T01:21:56.444Z,5.60
2023-01-11T01:24:25.039Z,7.27
2023-01-11T01:26:52.983Z,9.80
2023-01-11T01:29:22.080Z,7.03
2023-01-11T01:31:49.885Z,8.07
2023-01-11T01:34:18.204Z,11.10
2023-01-11T01:36:45.944Z,7.13
2023-01-11T01:39:13.894Z,7.83
2023-01-11T01:41:41.726Z,9.03
2023-01-11T01:44:42.525Z,7.13
2023-01-11T01:47:12.180Z,8.03
2023-01-11T01:49:40.937Z,5.77
2023-01-11T01:52:09.989Z,4.73
2023-01-11T01:54:40.928Z,7.23
2023-01-11T01:57:14.341Z,4.60
2023-01-11T01:59:42.708Z,6.37
2023-01-11T02:02:12.639Z,6.67
2023-01-11T02:04:43.383Z,6.00
2023-01-11T02:07:16.124Z,4.83
2023-01-11T02:09:49.538Z,5.60
2023-01-11T02:12:17.930Z,4.33
2023-01-11T02:14:47.377Z,5.50
2023-01-11T02:17:16.457Z,4.70
2023-01-11T02:19:56.105Z,5.73
2023-01-11T02:23:00.127Z,4.30
2023-01-11T02:26:03.206Z,8.40
2023-01-11T02:28:38.250Z,6.43
2023-01-11T02:31:15.688Z,5.40
2023-01-11T02:33:55.791Z,7.20
2023-01-11T02:36:31.582Z,3.90
2023-01-11T02:39:08.824Z,7.80
2023-01-11T02:41:58.574Z,4.10
2023-01-11T02:44:49.716Z,4.87
2023-01-11T02:47:22.726Z,5.47
2023-01-11T02:49:55.034Z,4.77
2023-01-11T02:52:31.229Z,4.13
2023-01-11T02:55:01.391Z,6.50
2023-01-11T02:57:30.660Z,4.10
2023-01-11T03:00:01.208Z,4.23
2023-01-11T03:02:29.272Z,4.23
2023-01-11T03:04:56.974Z,4.37
2023-01-11T03:07:40.246Z,5.03
2023-01-11T03:10:24.433Z,3.83
2023-01-11T03:13:02.575Z,5.53
2023-01-11T03:15:58.018Z,6.60
2023-01-11T03:18:34.501Z,3.50
2023-01-11T03:21:15.564Z,3.30
2023-01-11T03:23:53.151Z,3.67
2023-01-11T03:26:29.436Z,4.90
2023-01-11T03:29:06.899Z,3.17
2023-01-11T03:31:40.484Z,2.90
2023-01-11T03:34:17.077Z,4.90
2023-01-11T03:36:50.670Z,4.47
2023-01-11T03:39:25.600Z,4.20
2023-01-11T03:41:58.088Z,4.10
2023-01-11T03:44:27.389Z,5.63
2023-01-11T03:47:00.709Z,3.63
2023-01-11T03:49:32.634Z,3.33
2023-01-11T03:52:03.132Z,3.80
2023-01-11T03:54:33.244Z,3.80
2023-01-11T03:57:06.598Z,3.73
2023-01-11T03:59:35.117Z,4.33
2023-01-11T04:02:04.216Z,3.80
2023-01-11T04:04:32.058Z,3.90
2023-01-11T04:06:59.778Z,3.50
2023-01-11T04:09:27.460Z,3.83
2023-01-11T04:11:55.095Z,3.90
2023-01-11T04:14:23.237Z,4.07
2023-01-11T04:16:50.991Z,4.23
2023-01-11T04:19:20.129Z,3.83
2023-01-11T04:21:47.819Z,5.17
2023-01-11T04:24:15.594Z,3.40
2023-01-11T04:26:43.384Z,3.80
2023-01-11T04:29:11.586Z,3.80
2023-01-11T04:31:39.354Z,4.07
2023-01-11T04:34:07.088Z,5.93
2023-01-11T04:36:36.138Z,3.80
2023-01-11T04:39:03.814Z,4.63
2023-01-11T04:41:49.031Z,4.20
2023-01-11T04:44:16.692Z,3.97
2023-01-11T04:46:44.433Z,3.57
2023-01-11T04:49:12.191Z,3.73
2023-01-11T04:51:41.367Z,5.00
2023-01-11T04:54:09.334Z,4.67
2023-01-11T04:56:37.273Z,3.83
2023-01-11T04:59:05.037Z,3.90
2023-01-11T05:01:32.868Z,3.50
2023-01-11T05:04:00.892Z,3.80
2023-01-11T05:06:28.770Z,4.10
2023-01-11T05:08:57.870Z,3.73
2023-01-11T05:11:25.594Z,3.53
2023-01-11T05:13:53.317Z,5.13
2023-01-11T05:16:23.667Z,6.60
2023-01-11T05:18:53.159Z,4.70
2023-01-11T05:21:23.164Z,3.30
2023-01-11T05:23:50.892Z,3.90
2023-01-11T05:26:22.837Z,3.20
2023-01-11T05:28:51.860Z,3.53
2023-01-11T05:31:19.981Z,3.00
2023-01-11T05:33:48.100Z,3.90
2023-01-11T05:36:19.142Z,3.00
2023-01-11T05:38:48.016Z,4.80
2023-01-11T05:41:16.294Z,6.63
2023-01-11T05:44:05.600Z,3.60
2023-01-11T05:46:34.726Z,5.10
2023-01-11T05:49:03.312Z,3.40
2023-01-11T05:51:32.752Z,4.07
2023-01-11T05:54:01.307Z,3.50
2023-01-11T05:56:29.728Z,3.43
2023-01-11T05:58:59.106Z,2.80
2023-01-11T06:01:27.337Z,3.10
2023-01-11T06:03:55.079Z,4.10
2023-01-11T06:06:22.932Z,3.00
2023-01-11T06:08:50.682Z,2.80
2023-01-11T06:11:19.319Z,3.57
2023-01-11T06:13:47.051Z,3.10
2023-01-11T06:16:18.146Z,2.83
2023-01-11T06:18:47.868Z,3.40
2023-01-11T06:21:16.571Z,3.67
2023-01-11T06:23:46.640Z,3.70
2023-01-11T06:26:16.336Z,3.27
2023-01-11T06:28:44.425Z,3.40
2023-01-11T06:31:12.579Z,3.47
2023-01-11T06:33:41.749Z,3.70
2023-01-11T06:36:11.665Z,3.80
2023-01-11T06:38:39.583Z,3.60
2023-01-11T06:41:09.362Z,4.00
2023-01-11T06:43:38.561Z,3.30
2023-01-11T06:46:06.792Z,3.60
2023-01-11T06:48:34.519Z,4.40
2023-01-11T06:51:03.569Z,4.73
2023-01-11T06:53:31.362Z,4.40
2023-01-11T06:55:59.788Z,5.80
2023-01-11T06:58:27.764Z,5.47
2023-01-11T07:00:57.334Z,5.20
2023-01-11T07:03:26.616Z,6.07
2023-01-11T07:05:56.687Z,5.87
2023-01-11T07:08:27.232Z,5.63
2023-01-11T07:10:55.918Z,6.20
2023-01-11T07:13:23.957Z,5.57
2023-01-11T07:15:54.308Z,7.90
2023-01-11T07:18:47.096Z,8.83
2023-01-11T07:21:14.956Z,7.93
2023-01-11T07:23:44.147Z,14.03
2023-01-11T07:26:12.014Z,15.50
2023-01-11T07:28:39.776Z,8.73
2023-01-11T07:31:07.525Z,14.37
2023-01-11T07:33:35.572Z,13.50
2023-01-11T07:36:05.480Z,12.27
2023-01-11T07:38:33.523Z,16.93
2023-01-11T07:41:23.352Z,12.23
2023-01-11T07:43:50.122Z,15.33
2023-01-11T07:46:17.925Z,15.80
2023-01-11T07:48:45.632Z,13.20
2023-01-11T07:51:13.717Z,13.80
2023-01-11T07:53:41.428Z,17.77
2023-01-11T07:56:10.527Z,26.80
2023-01-11T07:58:38.257Z,22.13
2023-01-11T08:01:06.342Z,19.93
2023-01-11T08:03:34.357Z,36.77
2023-01-11T08:06:02.109Z,20.47
2023-01-11T08:08:29.921Z,28.57
2023-01-11T08:11:11.574Z,14.40
2023-01-11T08:13:57.941Z,37.60
2023-01-11T08:16:27.365Z,12.10
2023-01-11T08:18:55.224Z,31.73
2023-01-11T08:21:22.903Z,19.27
2023-01-11T08:23:50.626Z,21.93
2023-01-11T08:26:18.363Z,11.50
2023-01-11T08:28:47.954Z,12.80
2023-01-11T08:31:15.875Z,10.93
2023-01-11T08:33:43.633Z,11.00
2023-01-11T08:36:13.441Z,13.37
2023-01-11T08:38:41.433Z,8.60
2023-01-11T08:41:10.821Z,7.77
2023-01-11T08:43:38.586Z,14.07
2023-01-11T08:46:07.975Z,19.53
2023-01-11T08:48:36.613Z,16.13
2023-01-11T08:51:04.435Z,13.63
2023-01-11T08:53:32.171Z,8.60
2023-01-11T08:55:59.861Z,17.30
2023-01-11T08:58:27.565Z,14.63
2023-01-11T09:00:58.070Z,11.80
2023-01-11T09:03:28.631Z,20.47
2023-01-11T09:05:57.439Z,15.00
2023-01-11T09:08:26.343Z,10.77
2023-01-11T09:10:54.048Z,15.60
2023-01-11T09:13:21.779Z,9.57
2023-01-11T09:15:49.480Z,8.67
2023-01-11T09:18:17.217Z,11.10
2023-01-11T09:20:46.272Z,9.57
2023-01-11T09:23:13.965Z,5.83
2023-01-11T09:25:41.726Z,7.10
2023-01-11T09:28:09.521Z,5.47
2023-01-11T09:30:39.158Z,7.97
2023-01-11T09:33:07.914Z,5.23
2023-01-11T09:35:38.455Z,7.33
2023-01-11T09:38:07.497Z,7.37
2023-01-11T09:40:46.172Z,11.03
2023-01-11T09:43:16.787Z,9.03
2023-01-11T09:45:46.860Z,13.37
2023-01-11T09:48:28.709Z,17.50
2023-01-11T09:50:57.665Z,12.43
2023-01-11T09:53:34.807Z,19.97
2023-01-11T09:56:05.112Z,26.40
2023-01-11T09:58:48.902Z,27.63
2023-01-11T10:01:21.617Z,20.13
2023-01-11T10:04:26.126Z,23.27
2023-01-11T10:07:10.240Z,16.93
2023-01-11T10:18:22.292Z,22.37
2023-01-11T10:19:10.287Z,20.03
2023-01-11T10:21:36.586Z,26.23
2023-01-11T10:24:11.521Z,19.60
2023-01-11T10:26:41.643Z,25.43
2023-01-11T10:29:38.625Z,16.43
2023-01-11T10:32:34.265Z,16.90
2023-01-11T10:35:29.238Z,35.27
2023-01-11T10:38:22.967Z,16.40
2023-01-11T10:41:11.972Z,15.00
2023-01-11T10:43:44.443Z,10.93
2023-01-11T10:46:16.489Z,15.67
2023-01-11T10:48:46.018Z,13.50
2023-01-11T10:51:24.806Z,15.27
2023-01-11T10:54:02.707Z,7.83
2023-01-11T10:57:03.278Z,9.73
2023-01-11T10:59:49.771Z,7.07
2023-01-11T11:02:31.810Z,9.87
2023-01-11T11:05:12.606Z,7.90
2023-01-11T11:07:48.383Z,8.00
2023-01-11T11:10:21.891Z,5.33
2023-01-11T11:13:00.615Z,12.07
2023-01-11T11:15:37.250Z,11.53
2023-01-11T11:18:06.078Z,12.87
2023-01-11T11:20:35.383Z,14.60
2023-01-11T11:23:03.364Z,11.70
2023-01-11T11:25:33.167Z,18.07
2023-01-11T11:28:04.331Z,10.33
2023-01-11T11:30:37.975Z,17.13
2023-01-11T11:33:09.231Z,14.30
2023-01-11T11:35:38.912Z,19.40
2023-01-11T11:38:07.326Z,9.57
2023-01-11T11:40:38.310Z,11.03
2023-01-11T11:43:19.436Z,12.00
2023-01-11T11:45:57.012Z,15.27
2023-01-11T11:48:26.450Z,9.73
2023-01-11T11:50:56.646Z,13.57
2023-01-11T11:53:36.499Z,16.63
2023-01-11T11:56:09.923Z,19.37
2023-01-11T11:58:42.538Z,13.80
2023-01-11T12:01:24.493Z,8.53
2023-01-11T12:03:55.322Z,11.70
2023-01-11T12:06:26.064Z,6.23
2023-01-11T12:08:54.662Z,13.00
2023-01-11T12:11:29.952Z,11.97
2023-01-11T12:14:16.411Z,9.30
2023-01-11T12:16:47.238Z,6.33
2023-01-11T12:19:30.587Z,7.07
2023-01-11T12:22:12.368Z,7.87
2023-01-11T12:24:40.135Z,7.17
2023-01-11T12:27:17.437Z,7.73
2023-01-11T12:29:55.728Z,9.50
2023-01-11T12:32:59.180Z,13.17
2023-01-11T12:35:36.698Z,10.17
2023-01-11T12:38:19.355Z,11.67
2023-01-11T12:40:59.852Z,13.40
2023-01-11T12:43:39.109Z,10.57
2023-01-11T12:46:18.505Z,12.20
2023-01-11T12:49:01.396Z,18.57
2023-01-11T12:51:44.155Z,9.93
2023-01-11T12:54:32.382Z,12.80
2023-01-11T12:57:11.025Z,7.47
2023-01-11T12:59:55.906Z,12.57
2023-01-11T13:02:45.020Z,12.60
2023-01-11T13:05:25.761Z,7.03
2023-01-11T13:08:05.513Z,16.60
2023-01-11T13:10:41.119Z,7.63
2023-01-11T13:13:15.975Z,9.97
2023-01-11T13:15:53.694Z,10.37
2023-01-11T13:18:32.840Z,13.90
2023-01-11T13:21:12.123Z,10.67
2023-01-11T13:23:44.426Z,11.90
2023-01-11T13:26:22.888Z,8.27
2023-01-11T13:28:56.120Z,9.83
2023-01-11T13:31:25.115Z,12.97
2023-01-11T13:33:58.774Z,10.90
2023-01-11T13:36:34.377Z,8.53
2023-01-11T13:39:10.424Z,11.07
2023-01-11T13:41:43.511Z,11.57
2023-01-11T13:44:20.080Z,14.23
2023-01-11T13:46:58.821Z,8.90
2023-01-11T13:49:39.387Z,11.97
2023-01-11T13:52:14.565Z,8.63
2023-01-11T13:54:50.201Z,11.07
2023-01-11T13:57:25.472Z,15.00
2023-01-11T13:59:58.817Z,11.20
2023-01-11T14:02:37.390Z,7.17
2023-01-11T14:05:14.002Z,13.00
2023-01-11T14:07:55.907Z,9.23
2023-01-11T14:10:39.779Z,8.20
2023-01-11T14:13:38.874Z,7.97
2023-01-11T14:16:12.057Z,4.83
2023-01-11T14:18:49.268Z,11.10
2023-01-11T14:21:24.585Z,8.30
2023-01-11T14:23:55.232Z,10.90
2023-01-11T14:26:40.365Z,5.57
2023-01-11T14:29:24.158Z,14.27
2023-01-11T14:32:15.609Z,8.73
2023-01-11T14:35:14.705Z,11.47
2023-01-11T14:38:13.453Z,9.27
2023-01-11T14:41:10.761Z,6.97
2023-01-11T14:44:00.166Z,11.60
2023-01-11T14:46:51.929Z,9.77
2023-01-11T14:49:33.304Z,11.83
2023-01-11T14:52:05.255Z,7.60
2023-01-11T14:54:36.089Z,8.97
2023-01-11T14:57:05.245Z,9.00
2023-01-11T14:59:39.101Z,6.70
2023-01-11T15:02:29.068Z,10.37
2023-01-11T15:05:11.457Z,6.23
2023-01-11T15:07:43.266Z,12.87
2023-01-11T15:10:55.665Z,9.57
2023-01-11T15:13:26.658Z,14.23
2023-01-11T15:16:26.512Z,6.57
2023-01-11T15:18:55.009Z,6.53
2023-01-11T15:21:25.993Z,11.87
2023-01-11T15:23:57.590Z,11.93
2023-01-11T15:26:28.097Z,7.70
2023-01-11T15:28:59.085Z,11.30
2023-01-11T15:31:36.437Z,11.53
2023-01-11T15:34:17.905Z,8.60
2023-01-11T15:37:06.467Z,10.00
2023-01-11T15:39:42.719Z,9.47
2023-01-11T15:42:35.603Z,10.33
2023-01-11T15:45:33.156Z,13.37
2023-01-11T15:48:17.742Z,8.90
2023-01-11T15:51:03.305Z,8.53
2023-01-11T15:54:00.223Z,8.30
2023-01-11T15:56:49.629Z,8.63
2023-01-11T15:59:32.678Z,9.07
2023-01-11T16:02:42.511Z,16.47
2023-01-11T16:05:18.949Z,11.00
2023-01-11T16:07:58.268Z,27.97
2023-01-11T16:10:48.779Z,16.23
2023-01-11T16:13:30.754Z,14.57
2023-01-11T16:16:14.530Z,14.83
2023-01-11T16:18:47.996Z,14.43
2023-01-11T16:21:19.712Z,10.40
2023-01-11T16:23:47.621Z,13.37
2023-01-11T16:26:20.632Z,18.77
2023-01-11T16:28:50.198Z,14.57
2023-01-11T16:31:17.946Z,10.63
2023-01-11T16:33:49.579Z,16.00
2023-01-11T16:36:20.996Z,15.83
2023-01-11T16:39:03.507Z,11.57
2023-01-11T16:41:39.403Z,11.03
2023-01-11T16:44:09.888Z,16.53
2023-01-11T16:47:15.851Z,16.40
2023-01-11T16:49:52.089Z,15.83
2023-01-11T16:52:54.205Z,20.37
2023-01-11T16:55:30.681Z,11.53
2023-01-11T16:58:01.678Z,23.10
2023-01-11T17:00:37.895Z,19.83
2023-01-11T17:03:18.433Z,29.83
2023-01-11T17:06:16.238Z,31.93
2023-01-11T17:08:45.806Z,30.20
2023-01-11T17:11:36.507Z,28.47
2023-01-11T17:14:47.818Z,31.80
2023-01-11T17:17:15.674Z,25.83
2023-01-11T17:19:45.668Z,30.97
2023-01-11T17:22:26.062Z,32.47
2023-01-11T17:24:58.087Z,42.83
2023-01-11T17:27:29.641Z,33.17
2023-01-11T17:29:59.160Z,50.07
2023-01-11T17:32:34.602Z,21.73
2023-01-11T17:35:04.953Z,38.27
2023-01-11T17:37:35.381Z,31.57
2023-01-11T17:40:04.660Z,24.57
2023-01-11T17:42:49.794Z,26.20
2023-01-11T17:45:22.949Z,17.33
2023-01-11T17:47:52.619Z,18.30
2023-01-11T17:50:29.865Z,17.17
2023-01-11T17:53:07.925Z,20.87
2023-01-11T17:55:35.989Z,16.57
2023-01-11T17:58:18.081Z,16.43
2023-01-11T18:01:03.333Z,18.27
2023-01-11T18:03:32.182Z,17.37
2023-01-11T18:06:11.823Z,19.90
2023-01-11T18:08:46.524Z,16.80
2023-01-11T18:11:24.300Z,28.83
2023-01-11T18:13:53.384Z,25.53
2023-01-11T18:16:22.204Z,20.30
2023-01-11T18:18:51.838Z,18.43
2023-01-11T18:21:40.538Z,19.77
2023-01-11T18:24:25.097Z,15.10
2023-01-11T18:27:07.522Z,18.03
2023-01-11T18:29:49.187Z,19.73
2023-01-11T18:32:17.302Z,21.97
2023-01-11T18:34:47.631Z,17.07
2023-01-11T18:37:15.407Z,13.97
2023-01-11T18:39:44.573Z,17.73
2023-01-11T18:42:17.794Z,17.13
2023-01-11T18:44:49.259Z,13.57
2023-01-11T18:47:20.041Z,10.20
2023-01-11T18:49:48.190Z,16.90
2023-01-11T18:52:16.269Z,17.10
2023-01-11T18:54:46.139Z,16.73
2023-01-11T18:57:13.924Z,13.77
2023-01-11T18:59:41.640Z,14.80
2023-01-11T19:02:18.017Z,20.23
2023-01-11T19:04:46.358Z,15.10
2023-01-11T19:07:14.907Z,18.47
2023-01-11T19:09:45.052Z,10.60
2023-01-11T19:12:14.811Z,14.47
2023-01-11T19:14:42.868Z,16.27
2023-01-11T19:17:14.386Z,14.47
2023-01-11T19:19:42.341Z,18.03
2023-01-11T19:22:12.091Z,23.17
2023-01-11T19:24:40.533Z,18.73
2023-01-11T19:27:08.429Z,16.23
2023-01-11T19:29:37.667Z,14.97
2023-01-11T19:32:06.087Z,19.77
2023-01-11T19:34:34.742Z,21.20
2023-01-11T19:37:02.742Z,15.13
2023-01-11T19:39:30.494Z,12.73
2023-01-11T19:41:59.963Z,21.03
2023-01-11T19:44:30.636Z,20.03
2023-01-11T19:47:11.028Z,18.17
2023-01-11T19:49:40.323Z,16.90
2023-01-11T19:52:12.764Z,22.37
2023-01-11T19:54:41.991Z,18.20
2023-01-11T19:57:11.251Z,18.47
2023-01-11T19:59:39.366Z,15.03
2023-01-11T20:02:09.221Z,14.33
2023-01-11T20:04:37.165Z,17.13
2023-01-11T20:07:04.994Z,17.70
2023-01-11T20:09:32.698Z,18.80
2023-01-11T20:12:00.416Z,15.53
2023-01-11T20:14:28.157Z,19.27
2023-01-11T20:16:55.868Z,17.37
2023-01-11T20:19:24.952Z,21.50
2023-01-11T20:21:52.672Z,16.27
2023-01-11T20:24:20.384Z,19.00
2023-01-11T20:26:50.514Z,15.27
2023-01-11T20:29:18.312Z,9.97
2023-01-11T20:31:46.362Z,20.27
2023-01-11T20:34:14.100Z,16.87
2023-01-11T20:36:43.871Z,14.77
2023-01-11T20:39:12.047Z,15.80
2023-01-11T20:41:49.666Z,19.23
2023-01-11T20:44:18.835Z,17.60
2023-01-11T20:46:48.282Z,18.40
2023-01-11T20:49:17.006Z,17.27
2023-01-11T20:51:47.459Z,17.90
2023-01-11T20:54:16.207Z,19.70
2023-01-11T20:56:46.443Z,17.27
2023-01-11T20:59:16.473Z,19.47
2023-01-11T21:01:44.718Z,19.33
2023-01-11T21:04:13.533Z,14.27
2023-01-11T21:06:43.130Z,13.27
2023-01-11T21:09:14.683Z,15.20
2023-01-11T21:11:42.940Z,18.30
2023-01-11T21:14:12.129Z,16.57
2023-01-11T21:16:42.769Z,19.63
2023-01-11T21:19:13.568Z,14.30
2023-01-11T21:21:42.045Z,22.77
2023-01-11T21:24:14.611Z,14.47
2023-01-11T21:26:43.670Z,16.67
2023-01-11T21:29:13.007Z,26.63
2023-01-11T21:31:41.367Z,17.10
2023-01-11T21:34:11.147Z,17.10
2023-01-11T21:36:39.161Z,17.07
2023-01-11T21:39:07.033Z,19.67
2023-01-11T21:41:53.513Z,15.20
2023-01-11T21:44:22.340Z,15.93
2023-01-11T21:46:51.003Z,17.93
2023-01-11T21:49:21.249Z,22.97
2023-01-11T21:51:49.049Z,14.00
2023-01-11T21:54:18.853Z,14.87
2023-01-11T21:56:49.177Z,21.47
2023-01-11T21:59:17.676Z,17.47
2023-01-11T22:01:46.645Z,17.47
2023-01-11T22:04:17.264Z,13.23
2023-01-11T22:06:50.963Z,12.60
2023-01-11T22:09:18.836Z,17.70
2023-01-11T22:11:48.276Z,20.73
2023-01-11T22:14:16.016Z,14.13
2023-01-11T22:16:43.874Z,11.57
2023-01-11T22:19:11.659Z,14.47
2023-01-11T22:21:39.352Z,12.00
2023-01-11T22:24:10.292Z,12.37
2023-01-11T22:26:39.001Z,14.57
2023-01-11T22:29:18.413Z,14.47
2023-01-11T22:31:47.887Z,19.17
2023-01-11T22:34:16.443Z,14.23
2023-01-11T22:36:45.043Z,16.57
2023-01-11T22:39:13.815Z,16.87
2023-01-11T22:41:41.659Z,24.30
2023-01-11T22:44:10.848Z,17.77
2023-01-11T22:46:38.910Z,10.10
2023-01-11T22:49:07.090Z,17.43
2023-01-11T22:51:35.829Z,18.60
2023-01-11T22:54:04.299Z,15.53
2023-01-11T22:56:32.349Z,15.27
2023-01-11T22:59:00.540Z,15.03
2023-01-11T23:01:33.706Z,15.50
2023-01-11T23:04:02.706Z,16.13
2023-01-11T23:06:32.184Z,14.03
2023-01-11T23:09:00.546Z,14.00
2023-01-11T23:11:47.231Z,16.67
2023-01-11T23:14:17.051Z,14.30
2023-01-11T23:16:47.244Z,16.57
2023-01-11T23:19:17.340Z,11.77
2023-01-11T23:21:46.422Z,14.93
2023-01-11T23:24:16.554Z,12.10
2023-01-11T23:26:45.513Z,12.47
2023-01-11T23:29:13.886Z,14.93
2023-01-11T23:31:42.844Z,13.20
2023-01-11T23:34:13.209Z,11.93
2023-01-11T23:36:42.637Z,11.00
2023-01-11T23:39:14.430Z,10.73
2023-01-11T23:42:00.129Z,14.63
2023-01-11T23:44:28.363Z,13.77
2023-01-11T23:47:13.451Z,18.87
2023-01-11T23:49:43.726Z,12.73
2023-01-11T23:52:11.989Z,10.60
2023-01-11T23:54:39.827Z,12.53
2023-01-11T23:57:09.335Z,11.83
2023-01-11T23:59:37.017Z,11.43
